createdAt,value
2022-08-29T00:00:51.479Z,100783.34
2022-08-29T00:03:18.322Z,100772.13
2022-08-29T00:05:44.925Z,100776.66
2022-08-29T00:08:17.313Z,100776.81
2022-08-29T00:10:43.781Z,100782.34
2022-08-29T00:13:11.976Z,100774.28
2022-08-29T00:15:44.745Z,100765.22
2022-08-29T00:18:11.972Z,100762.78
2022-08-29T00:20:39.105Z,100758.22
2022-08-29T00:23:06.601Z,100762.50
2022-08-29T00:25:33.290Z,100750.38
2022-08-29T00:28:00.155Z,100742.22
2022-08-29T00:30:27.154Z,100736.34
2022-08-29T00:32:53.963Z,100732.34
2022-08-29T00:35:33.771Z,100731.56
2022-08-29T00:38:01.455Z,100726.94
2022-08-29T00:40:34.549Z,100729.19
2022-08-29T00:43:04.498Z,100734.06
2022-08-29T00:45:32.412Z,100732.66
2022-08-29T00:48:08.624Z,100734.63
2022-08-29T00:50:54.832Z,100753.28
2022-08-29T00:53:33.008Z,100742.94
2022-08-29T00:56:02.656Z,100754.41
2022-08-29T00:58:37.146Z,100748.09
2022-08-29T01:01:06.675Z,100749.59
2022-08-29T01:03:42.674Z,100757.03
2022-08-29T01:06:10.629Z,100758.31
2022-08-29T01:08:37.249Z,100759.97
2022-08-29T01:11:23.208Z,100759.97
2022-08-29T01:13:51.402Z,100763.00
2022-08-29T01:16:19.237Z,100771.44
2022-08-29T01:18:48.822Z,100770.19
2022-08-29T01:21:34.472Z,100772.28
2022-08-29T01:24:16.203Z,100766.81
2022-08-29T01:26:46.789Z,100767.06
2022-08-29T01:29:14.521Z,100764.28
2022-08-29T01:31:57.229Z,100768.94
2022-08-29T01:34:28.691Z,100777.84
2022-08-29T01:37:06.764Z,100777.88
2022-08-29T01:39:36.617Z,100778.03
2022-08-29T01:42:13.040Z,100783.34
2022-08-29T01:44:40.964Z,100766.63
2022-08-29T01:47:11.312Z,100768.97
2022-08-29T01:49:40.886Z,100767.47
2022-08-29T01:52:08.055Z,100775.09
2022-08-29T01:54:34.958Z,100789.94
2022-08-29T01:57:12.309Z,100788.88
2022-08-29T01:59:44.851Z,100795.44
2022-08-29T02:02:18.059Z,100792.69
2022-08-29T02:04:47.053Z,100796.47
2022-08-29T02:07:20.668Z,100774.72
2022-08-29T02:09:47.546Z,100781.28
2022-08-29T02:12:15.680Z,100796.31
2022-08-29T02:14:43.297Z,100789.28
2022-08-29T02:17:10.037Z,100788.69
2022-08-29T02:19:37.985Z,100798.59
2022-08-29T02:22:06.589Z,100801.38
2022-08-29T02:24:33.410Z,100808.38
2022-08-29T02:27:00.387Z,100809.22
2022-08-29T02:29:37.056Z,100807.94
2022-08-29T02:32:10.897Z,100794.44
2022-08-29T02:34:39.969Z,100796.97
2022-08-29T02:37:13.419Z,100787.66
2022-08-29T02:39:39.897Z,100782.38
2022-08-29T02:42:06.488Z,100789.34
2022-08-29T02:44:33.077Z,100801.63
2022-08-29T02:46:59.611Z,100796.53
2022-08-29T02:49:28.451Z,100808.19
2022-08-29T02:52:02.414Z,100799.94
2022-08-29T02:54:28.864Z,100796.97
2022-08-29T02:56:55.331Z,100804.63
2022-08-29T02:59:21.750Z,100800.78
2022-08-29T03:01:48.166Z,100792.78
2022-08-29T03:04:14.607Z,100806.31
2022-08-29T03:06:43.325Z,100812.44
2022-08-29T03:09:09.805Z,100801.03
2022-08-29T03:11:36.254Z,100799.16
2022-08-29T03:14:02.895Z,100796.19
2022-08-29T03:16:29.431Z,100782.44
2022-08-29T03:18:55.886Z,100803.41
2022-08-29T03:21:24.967Z,100803.81
2022-08-29T03:23:53.199Z,100808.91
2022-08-29T03:26:23.619Z,100796.41
2022-08-29T03:28:50.098Z,100786.47
2022-08-29T03:31:19.546Z,100787.31
2022-08-29T03:33:48.489Z,100784.38
2022-08-29T03:36:15.098Z,100788.38
2022-08-29T03:38:47.134Z,100790.72
2022-08-29T03:41:19.829Z,100795.81
2022-08-29T03:43:46.654Z,100787.75
2022-08-29T03:46:13.125Z,100797.06
2022-08-29T03:48:41.965Z,100796.22
2022-08-29T03:51:09.111Z,100796.44
2022-08-29T03:53:35.544Z,100797.09
2022-08-29T03:56:06.106Z,100793.88
2022-08-29T03:58:33.395Z,100793.69
2022-08-29T04:01:00.786Z,100781.63
2022-08-29T04:03:31.150Z,100790.72
2022-08-29T04:05:59.149Z,100792.00
2022-08-29T04:08:25.613Z,100808.06
2022-08-29T04:10:52.063Z,100792.00
2022-08-29T04:13:18.633Z,100799.41
2022-08-29T04:15:45.147Z,100789.03
2022-08-29T04:18:11.956Z,100792.84
2022-08-29T04:20:41.673Z,100797.06
2022-08-29T04:23:08.629Z,100788.81
2022-08-29T04:25:38.008Z,100795.75
2022-08-29T04:28:10.158Z,100799.97
2022-08-29T04:30:39.986Z,100802.09
2022-08-29T04:33:06.845Z,100806.75
2022-08-29T04:35:34.870Z,100813.56
2022-08-29T04:38:01.712Z,100807.41
2022-08-29T04:40:28.161Z,100813.56
2022-08-29T04:42:54.757Z,100816.53
2022-08-29T04:45:22.777Z,100807.44
2022-08-29T04:47:51.810Z,100812.72
2022-08-29T04:50:21.589Z,100810.59
2022-08-29T04:52:52.263Z,100817.16
2022-08-29T04:55:22.607Z,100819.47
2022-08-29T04:57:56.478Z,100815.69
2022-08-29T05:00:27.530Z,100826.44
2022-08-29T05:02:54.400Z,100835.34
2022-08-29T05:05:23.290Z,100840.84
2022-08-29T05:07:49.718Z,100837.91
2022-08-29T05:10:20.610Z,100844.03
2022-08-29T05:12:48.103Z,100839.78
2022-08-29T05:15:18.591Z,100831.53
2022-08-29T05:17:45.215Z,100845.91
2022-08-29T05:20:13.016Z,100854.81
2022-08-29T05:22:40.900Z,100845.94
2022-08-29T05:25:07.907Z,100851.22
2022-08-29T05:27:34.382Z,100855.44
2022-08-29T05:30:01.683Z,100852.06
2022-08-29T05:32:30.692Z,100852.72
2022-08-29T05:34:57.981Z,100841.91
2022-08-29T05:37:24.929Z,100861.81
2022-08-29T05:39:51.446Z,100864.78
2022-08-29T05:42:20.440Z,100863.91
2022-08-29T05:44:47.195Z,100876.63
2022-08-29T05:47:17.710Z,100862.63
2022-08-29T05:49:45.457Z,100872.56
2022-08-29T05:52:13.857Z,100868.75
2022-08-29T05:54:44.759Z,100876.16
2022-08-29T05:57:18.757Z,100871.72
2022-08-29T05:59:49.207Z,100870.44
2022-08-29T06:02:16.922Z,100874.25
2022-08-29T06:04:43.501Z,100872.97
2022-08-29T06:07:10.977Z,100874.84
2022-08-29T06:09:38.705Z,100877.75
2022-08-29T06:12:06.021Z,100885.59
2022-08-29T06:14:32.630Z,100892.13
2022-08-29T06:16:59.470Z,100880.81
2022-08-29T06:19:26.056Z,100893.91
2022-08-29T06:21:57.222Z,100899.34
2022-08-29T06:24:23.687Z,100903.09
2022-08-29T06:26:52.410Z,100906.19
2022-08-29T06:29:18.883Z,100914.84
2022-08-29T06:31:45.337Z,100916.22
2022-08-29T06:34:11.776Z,100911.44
2022-08-29T06:36:42.081Z,100921.53
2022-08-29T06:39:10.670Z,100941.25
2022-08-29T06:41:39.112Z,100936.16
2022-08-29T06:44:05.804Z,100954.00
2022-08-29T06:46:37.172Z,100934.63
2022-08-29T06:49:05.874Z,100936.78
2022-08-29T06:51:35.753Z,100941.38
2022-08-29T06:54:04.717Z,100961.97
2022-08-29T06:56:37.343Z,100948.22
2022-08-29T06:59:04.919Z,100943.69
2022-08-29T07:01:31.826Z,100975.66
2022-08-29T07:04:00.327Z,100946.78
2022-08-29T07:06:30.358Z,100967.00
2022-08-29T07:08:57.664Z,100994.91
2022-08-29T07:11:25.941Z,101001.53
2022-08-29T07:13:52.972Z,100978.66
2022-08-29T07:16:26.343Z,100972.22
2022-08-29T07:18:53.435Z,100977.69
2022-08-29T07:21:24.794Z,100985.53
2022-08-29T07:23:52.938Z,100975.31
2022-08-29T07:26:23.361Z,101016.75
2022-08-29T07:28:54.497Z,101012.44
2022-08-29T07:31:20.978Z,101020.47
2022-08-29T07:33:48.063Z,101000.00
2022-08-29T07:36:20.933Z,101001.09
2022-08-29T07:38:47.634Z,101033.28
2022-08-29T07:41:14.682Z,101012.56
2022-08-29T07:43:42.199Z,101021.09
2022-08-29T07:46:15.640Z,101024.81
2022-08-29T07:48:43.636Z,101044.81
2022-08-29T07:51:18.167Z,101029.09
2022-08-29T07:53:45.519Z,101024.19
2022-08-29T07:56:15.346Z,101029.31
2022-08-29T07:58:42.829Z,101011.50
2022-08-29T08:01:09.792Z,101062.00
2022-08-29T08:03:42.599Z,101047.75
2022-08-29T08:06:10.345Z,101037.25
2022-08-29T08:08:39.335Z,101026.16
2022-08-29T08:11:07.433Z,101027.78
2022-08-29T08:13:35.879Z,101031.22
2022-08-29T08:16:13.169Z,101047.66
2022-08-29T08:18:42.047Z,101046.47
2022-08-29T08:21:09.751Z,101037.09
2022-08-29T08:23:36.662Z,101053.34
2022-08-29T08:26:03.518Z,101064.19
2022-08-29T08:28:34.768Z,101070.88
2022-08-29T08:31:05.830Z,101038.66
2022-08-29T08:33:35.031Z,101032.91
2022-08-29T08:36:04.282Z,101057.44
2022-08-29T08:38:31.437Z,101068.34
2022-08-29T08:41:07.638Z,101082.19
2022-08-29T08:43:43.415Z,101057.63
2022-08-29T08:46:10.087Z,101051.97
2022-08-29T08:48:42.010Z,101035.47
2022-08-29T08:51:21.918Z,101073.00
2022-08-29T08:53:52.391Z,101103.16
2022-08-29T08:56:40.307Z,101104.69
2022-08-29T08:59:22.156Z,101080.66
2022-08-29T09:02:26.835Z,101026.44
2022-08-29T09:05:03.165Z,101059.19
2022-08-29T09:07:44.279Z,101057.78
2022-08-29T09:10:25.934Z,101100.63
2022-08-29T09:13:14.990Z,101081.06
2022-08-29T09:15:47.281Z,101090.41
2022-08-29T09:18:24.040Z,101096.69
2022-08-29T09:20:54.176Z,101115.16
2022-08-29T09:23:49.876Z,101108.31
2022-08-29T09:26:18.817Z,101079.59
2022-08-29T09:28:45.345Z,101101.47
2022-08-29T09:31:24.460Z,101091.78
2022-08-29T09:34:03.951Z,101103.56
2022-08-29T09:36:41.864Z,101106.50
2022-08-29T09:39:11.355Z,101117.66
2022-08-29T09:41:38.657Z,101127.81
2022-08-29T09:44:09.424Z,101121.47
2022-08-29T09:46:35.921Z,101098.94
2022-08-29T09:49:04.427Z,101106.81
2022-08-29T09:51:35.893Z,101079.31
2022-08-29T09:54:21.086Z,101105.31
2022-08-29T09:57:05.328Z,101125.56
2022-08-29T09:59:44.715Z,101095.34
2022-08-29T10:02:22.206Z,101076.84
2022-08-29T10:05:01.391Z,101052.56
2022-08-29T10:07:37.474Z,101101.06
2022-08-29T10:10:19.951Z,101101.91
2022-08-29T10:13:08.227Z,101085.31
2022-08-29T10:16:17.848Z,101121.38
2022-08-29T10:18:52.282Z,101104.22
2022-08-29T10:21:37.207Z,101093.91
2022-08-29T10:24:19.923Z,101108.25
2022-08-29T10:26:52.069Z,101120.06
2022-08-29T10:29:55.946Z,101130.38
2022-08-29T10:32:42.572Z,101124.66
2022-08-29T10:35:14.828Z,101127.38
2022-08-29T10:37:49.609Z,101128.25
2022-08-29T10:40:28.451Z,101110.16
2022-08-29T10:43:18.472Z,101139.38
2022-08-29T10:46:17.619Z,101124.72
2022-08-29T10:49:09.211Z,101116.31
2022-08-29T10:52:01.435Z,101129.25
2022-08-29T10:54:37.435Z,101112.78
2022-08-29T10:57:09.751Z,101130.94
2022-08-29T11:00:04.567Z,101108.28
2022-08-29T11:02:44.087Z,101130.66
2022-08-29T11:05:16.283Z,101113.31
2022-08-29T11:07:48.823Z,101112.22
2022-08-29T11:10:24.800Z,101094.91
2022-08-29T11:12:58.921Z,101121.22
2022-08-29T11:15:56.165Z,101110.31
2022-08-29T11:18:39.620Z,101115.34
2022-08-29T11:21:26.050Z,101107.78
2022-08-29T11:23:54.043Z,101098.25
2022-08-29T11:26:44.825Z,101086.50
2022-08-29T11:29:32.076Z,101089.84
2022-08-29T11:32:07.617Z,101066.84
2022-08-29T11:34:55.187Z,101063.50
2022-08-29T11:37:49.607Z,101067.16
2022-08-29T11:41:26.387Z,101072.75
2022-08-29T11:43:42.114Z,101091.00
2022-08-29T11:46:11.549Z,101086.50
2022-08-29T11:48:55.774Z,101057.91
2022-08-29T11:51:35.964Z,101068.53
2022-08-29T11:54:25.556Z,101076.38
2022-08-29T11:57:01.688Z,101079.13
2022-08-29T11:59:50.666Z,101079.00
2022-08-29T12:02:32.361Z,101083.34
2022-08-29T12:05:08.796Z,101069.88
2022-08-29T12:08:35.637Z,101041.28
2022-08-29T12:10:57.983Z,101041.13
2022-08-29T12:13:46.509Z,101083.91
2022-08-29T12:16:23.320Z,101075.41
2022-08-29T12:18:55.038Z,101077.97
2022-08-29T12:21:45.747Z,101049.56
2022-08-29T12:24:42.995Z,101041.09
2022-08-29T12:27:24.634Z,101068.09
2022-08-29T12:29:52.514Z,101049.50
2022-08-29T12:32:42.002Z,101061.94
2022-08-29T12:35:23.206Z,101082.03
2022-08-29T12:38:28.442Z,101025.03
2022-08-29T12:41:05.555Z,101033.41
2022-08-29T12:43:36.684Z,101091.41
2022-08-29T12:46:11.193Z,101060.69
2022-08-29T12:48:53.419Z,101086.81
2022-08-29T12:51:35.010Z,101061.81
2022-08-29T12:54:01.714Z,101064.75
2022-08-29T12:56:32.223Z,101059.03
2022-08-29T12:59:01.144Z,101047.16
2022-08-29T13:01:39.150Z,101045.81
2022-08-29T13:04:14.795Z,101042.00
2022-08-29T13:07:02.027Z,101030.13
2022-08-29T13:09:45.252Z,101037.69
2022-08-29T13:12:21.138Z,101029.06
2022-08-29T13:14:53.459Z,101024.97
2022-08-29T13:17:24.105Z,101019.00
2022-08-29T13:20:27.959Z,100986.59
2022-08-29T13:23:17.011Z,100987.22
2022-08-29T13:25:57.350Z,100998.50
2022-08-29T13:28:56.055Z,100993.53
2022-08-29T13:31:26.340Z,100983.03
2022-08-29T13:33:56.352Z,100990.09
2022-08-29T13:36:49.624Z,100981.34
2022-08-29T13:39:25.380Z,100951.03
2022-08-29T13:42:01.112Z,100980.78
2022-08-29T13:44:33.739Z,101003.88
2022-08-29T13:47:04.327Z,101004.13
2022-08-29T13:49:35.829Z,100981.91
2022-08-29T13:52:02.930Z,100948.09
2022-08-29T13:54:31.114Z,100961.31
2022-08-29T13:56:58.747Z,100966.03
2022-08-29T13:59:36.077Z,100942.72
2022-08-29T14:02:10.968Z,100929.88
2022-08-29T14:04:39.874Z,100950.53
2022-08-29T14:07:09.470Z,100955.34
2022-08-29T14:09:43.039Z,100951.41
2022-08-29T14:12:10.202Z,100953.63
2022-08-29T14:14:39.708Z,100958.72
2022-08-29T14:17:06.330Z,100960.13
2022-08-29T14:19:32.819Z,100944.25
2022-08-29T14:22:00.445Z,100940.03
2022-08-29T14:24:34.280Z,100925.59
2022-08-29T14:27:02.688Z,100936.63
2022-08-29T14:29:36.235Z,100938.88
2022-08-29T14:32:03.527Z,100941.53
2022-08-29T14:34:32.458Z,100938.75
2022-08-29T14:36:59.266Z,100933.72
2022-08-29T14:39:27.792Z,100934.03
2022-08-29T14:41:55.255Z,100946.13
2022-08-29T14:44:24.821Z,100921.09
2022-08-29T14:46:51.644Z,100886.03
2022-08-29T14:49:21.304Z,100892.84
2022-08-29T14:51:47.817Z,100892.06
2022-08-29T14:54:16.656Z,100902.47
2022-08-29T14:56:48.733Z,100886.81
2022-08-29T14:59:16.622Z,100884.53
2022-08-29T15:01:43.161Z,100890.16
2022-08-29T15:04:09.890Z,100878.88
2022-08-29T15:06:41.025Z,100894.94
2022-08-29T15:09:07.636Z,100860.50
2022-08-29T15:11:34.118Z,100871.16
2022-08-29T15:14:04.683Z,100874.50
2022-08-29T15:16:31.924Z,100871.47
2022-08-29T15:19:40.617Z,100875.69
2022-08-29T15:21:44.988Z,100870.94
2022-08-29T15:24:11.518Z,100869.56
2022-08-29T15:26:43.817Z,100862.44
2022-08-29T15:29:12.810Z,100872.28
2022-08-29T15:31:39.245Z,100863.31
2022-08-29T15:34:08.154Z,100859.13
2022-08-29T15:36:35.753Z,100845.13
2022-08-29T15:39:05.733Z,100838.94
2022-08-29T15:41:33.041Z,100816.56
2022-08-29T15:44:00.000Z,100817.97
2022-08-29T15:46:29.013Z,100823.81
2022-08-29T15:48:55.583Z,100844.28
2022-08-29T15:51:22.239Z,100825.28
2022-08-29T15:53:51.138Z,100837.84
2022-08-29T15:56:17.691Z,100826.38
2022-08-29T15:58:48.247Z,100847.06
2022-08-29T16:01:15.021Z,100847.94
2022-08-29T16:03:42.760Z,100844.84
2022-08-29T16:06:10.789Z,100846.00
2022-08-29T16:08:38.075Z,100848.19
2022-08-29T16:11:15.297Z,100842.88
2022-08-29T16:13:44.812Z,100849.88
2022-08-29T16:16:11.315Z,100862.78
2022-08-29T16:18:37.818Z,100846.03
2022-08-29T16:21:06.965Z,100856.94
2022-08-29T16:23:34.260Z,100824.75
2022-08-29T16:26:00.915Z,100817.19
2022-08-29T16:28:28.797Z,100826.19
2022-08-29T16:31:00.254Z,100821.72
2022-08-29T16:33:27.247Z,100817.53
2022-08-29T16:35:53.915Z,100815.84
2022-08-29T16:38:20.489Z,100812.81
2022-08-29T16:40:50.251Z,100799.97
2022-08-29T16:43:21.669Z,100798.00
2022-08-29T16:45:48.123Z,100801.94
2022-08-29T16:48:17.652Z,100819.28
2022-08-29T16:50:44.637Z,100817.06
2022-08-29T16:53:11.173Z,100815.38
2022-08-29T16:55:37.787Z,100819.31
2022-08-29T16:58:22.641Z,100825.22
2022-08-29T17:00:50.010Z,100841.69
2022-08-29T17:03:20.089Z,100838.91
2022-08-29T17:05:46.939Z,100845.63
2022-08-29T17:08:13.402Z,100844.78
2022-08-29T17:10:42.690Z,100845.03
2022-08-29T17:13:09.398Z,100844.50
2022-08-29T17:15:38.603Z,100846.75
2022-08-29T17:18:05.179Z,100835.91
2022-08-29T17:20:36.855Z,100834.53
2022-08-29T17:23:04.021Z,100830.63
2022-08-29T17:25:33.496Z,100840.66
2022-08-29T17:28:17.227Z,100828.72
2022-08-29T17:30:48.789Z,100829.53
2022-08-29T17:33:16.598Z,100825.38
2022-08-29T17:35:43.451Z,100826.78
2022-08-29T17:38:10.392Z,100831.25
2022-08-29T17:40:40.437Z,100834.63
2022-08-29T17:43:09.023Z,100829.88
2022-08-29T17:45:37.475Z,100831.56
2022-08-29T17:48:05.095Z,100825.72
2022-08-29T17:50:32.847Z,100834.38
2022-08-29T17:52:59.367Z,100836.91
2022-08-29T17:55:29.904Z,100840.28
2022-08-29T17:57:57.215Z,100829.66
2022-08-29T18:00:25.072Z,100832.44
2022-08-29T18:02:52.011Z,100823.50
2022-08-29T18:05:23.515Z,100839.69
2022-08-29T18:07:51.361Z,100840.25
2022-08-29T18:10:19.518Z,100844.69
2022-08-29T18:12:48.884Z,100845.25
2022-08-29T18:15:15.954Z,100841.63
2022-08-29T18:17:45.259Z,100846.94
2022-08-29T18:20:15.598Z,100854.41
2022-08-29T18:22:43.671Z,100850.78
2022-08-29T18:25:11.389Z,100855.50
2022-08-29T18:27:43.602Z,100848.81
2022-08-29T18:30:13.520Z,100847.63
2022-08-29T18:32:41.010Z,100849.56
2022-08-29T18:35:10.661Z,100858.19
2022-08-29T18:37:37.193Z,100861.22
2022-08-29T18:40:05.387Z,100858.69
2022-08-29T18:42:40.421Z,100851.41
2022-08-29T18:45:09.458Z,100849.94
2022-08-29T18:47:38.340Z,100848.50
2022-08-29T18:50:25.243Z,100852.94
2022-08-29T18:52:52.494Z,100857.09
2022-08-29T18:55:19.219Z,100849.78
2022-08-29T18:57:47.118Z,100857.53
2022-08-29T19:00:17.898Z,100862.50
2022-08-29T19:02:44.562Z,100866.63
2022-08-29T19:05:13.337Z,100867.44
2022-08-29T19:07:39.899Z,100864.34
2022-08-29T19:10:07.453Z,100861.22
2022-08-29T19:12:33.952Z,100860.25
2022-08-29T19:15:00.597Z,100856.34
2022-08-29T19:17:27.130Z,100856.59
2022-08-29T19:20:12.351Z,100862.66
2022-08-29T19:22:39.308Z,100860.41
2022-08-29T19:25:08.579Z,100857.03
2022-08-29T19:27:44.365Z,100863.41
2022-08-29T19:30:13.813Z,100849.38
2022-08-29T19:32:40.664Z,100849.06
2022-08-29T19:35:13.283Z,100856.84
2022-08-29T19:37:41.641Z,100864.03
2022-08-29T19:40:10.359Z,100855.06
2022-08-29T19:42:41.404Z,100855.06
2022-08-29T19:45:10.871Z,100857.78
2022-08-29T19:47:37.871Z,100864.41
2022-08-29T19:50:07.509Z,100853.09
2022-08-29T19:52:36.976Z,100851.97
2022-08-29T19:55:08.549Z,100842.47
2022-08-29T19:57:35.366Z,100843.56
2022-08-29T20:00:02.008Z,100842.41
2022-08-29T20:02:28.572Z,100858.00
2022-08-29T20:04:55.187Z,100849.66
2022-08-29T20:07:21.591Z,100849.59
2022-08-29T20:09:48.833Z,100860.72
2022-08-29T20:12:15.365Z,100854.19
2022-08-29T20:14:41.867Z,100853.28
2022-08-29T20:17:09.217Z,100851.00
2022-08-29T20:19:40.809Z,100848.75
2022-08-29T20:22:10.214Z,100848.69
2022-08-29T20:24:37.304Z,100848.88
2022-08-29T20:27:04.431Z,100855.22
2022-08-29T20:32:10.197Z,100849.59
2022-08-29T20:34:39.032Z,100842.00
2022-08-29T20:37:14.103Z,100850.00
2022-08-29T20:39:46.397Z,100834.94
2022-08-29T20:42:18.022Z,100838.75
2022-08-29T20:44:45.580Z,100828.63
2022-08-29T20:47:19.549Z,100835.28
2022-08-29T20:49:47.295Z,100829.66
2022-08-29T20:52:17.533Z,100834.72
2022-08-29T20:54:46.224Z,100841.44
2022-08-29T20:57:15.443Z,100829.72
2022-08-29T20:59:42.847Z,100824.09
2022-08-29T21:02:10.252Z,100833.78
2022-08-29T21:04:56.193Z,100837.91
2022-08-29T21:07:23.077Z,100828.91
2022-08-29T21:09:50.942Z,100823.88
2022-08-29T21:12:18.734Z,100829.44
2022-08-29T21:14:48.183Z,100824.81
2022-08-29T21:17:18.174Z,100818.09
2022-08-29T21:19:45.046Z,100814.03
2022-08-29T21:22:15.645Z,100811.88
2022-08-29T21:24:42.344Z,100819.03
2022-08-29T21:27:13.499Z,100805.31
2022-08-29T21:29:41.085Z,100801.00
2022-08-29T21:32:07.534Z,100787.34
2022-08-29T21:34:34.031Z,100799.03
2022-08-29T21:37:00.526Z,100791.47
2022-08-29T21:39:28.585Z,100804.84
2022-08-29T21:42:02.468Z,100802.31
2022-08-29T21:44:29.816Z,100808.16
2022-08-29T21:46:56.367Z,100787.53
2022-08-29T21:49:26.943Z,100785.84
2022-08-29T21:51:56.510Z,100791.91
2022-08-29T21:54:22.964Z,100789.97
2022-08-29T21:56:53.933Z,100789.97
2022-08-29T21:59:21.659Z,100803.56
2022-08-29T22:01:54.651Z,100798.88
2022-08-29T22:04:28.595Z,100808.03
2022-08-29T22:06:59.301Z,100800.06
2022-08-29T22:09:26.026Z,100806.78
2022-08-29T22:11:52.599Z,100819.31
2022-08-29T22:14:19.047Z,100830.31
2022-08-29T22:16:45.463Z,100831.22
2022-08-29T22:19:16.175Z,100837.00
2022-08-29T22:21:46.089Z,100852.94
2022-08-29T22:24:23.215Z,100851.34
2022-08-29T22:26:49.628Z,100858.59
2022-08-29T22:29:16.247Z,100857.97
2022-08-29T22:31:48.314Z,100859.94
2022-08-29T22:34:19.563Z,100856.81
2022-08-29T22:36:50.864Z,100850.66
2022-08-29T22:39:19.540Z,100856.81
2022-08-29T22:41:47.719Z,100863.47
2022-08-29T22:44:59.574Z,100852.94
2022-08-29T22:47:04.038Z,100868.34
2022-08-29T22:49:33.471Z,100859.16
2022-08-29T22:52:09.421Z,100860.59
2022-08-29T22:54:38.418Z,100854.78
2022-08-29T22:57:10.803Z,100857.50
2022-08-29T22:59:38.405Z,100854.34
2022-08-29T23:02:10.934Z,100859.34
2022-08-29T23:04:38.392Z,100853.13
2022-08-29T23:07:06.380Z,100841.16
2022-08-29T23:09:35.988Z,100828.00
2022-08-29T23:12:07.346Z,100833.53
2022-08-29T23:14:35.896Z,100817.13
2022-08-29T23:17:04.160Z,100803.53
2022-08-29T23:19:31.190Z,100785.34
2022-08-29T23:21:58.218Z,100763.91
2022-08-29T23:24:26.235Z,100766.63
2022-08-29T23:26:54.922Z,100745.59
2022-08-29T23:29:21.471Z,100727.28
2022-08-29T23:31:50.575Z,100723.72
2022-08-29T23:34:16.968Z,100721.38
2022-08-29T23:36:43.479Z,100727.00
2022-08-29T23:39:09.885Z,100723.41
2022-08-29T23:41:36.410Z,100712.72
2022-08-29T23:44:05.174Z,100715.25
2022-08-29T23:46:31.700Z,100708.75
2022-08-29T23:48:58.386Z,100718.78
2022-08-29T23:51:27.792Z,100713.47
2022-08-29T23:53:57.370Z,100693.50
2022-08-29T23:56:24.221Z,100687.69
2022-08-29T23:58:50.984Z,100698.41
